createdAt,value
2023-01-02T00:00:01.176Z,13.1
2023-01-02T00:01:01.413Z,13.1
2023-01-02T00:02:01.355Z,13.1
2023-01-02T00:03:01.573Z,13.1
2023-01-02T00:04:02.416Z,13.1
2023-01-02T00:05:01.364Z,13.1
2023-01-02T00:06:01.328Z,13.1
2023-01-02T00:07:01.564Z,13.1
2023-01-02T00:08:01.060Z,13.1
2023-01-02T00:09:01.066Z,13
2023-01-02T00:10:01.083Z,13
2023-01-02T00:11:01.078Z,13
2023-01-02T00:12:01.084Z,13
2023-01-02T00:13:01.071Z,13
2023-01-02T00:14:01.100Z,13
2023-01-02T00:15:01.113Z,13
2023-01-02T00:16:01.606Z,13
2023-01-02T00:17:01.112Z,13
2023-01-02T00:18:01.117Z,13
2023-01-02T00:19:01.660Z,13
2023-01-02T00:20:01.050Z,13
2023-01-02T00:21:01.048Z,12.9
2023-01-02T00:22:01.387Z,12.9
2023-01-02T00:23:01.413Z,13
2023-01-02T00:24:01.409Z,12.9
2023-01-02T00:25:02.615Z,12.9
2023-01-02T00:26:01.149Z,12.9
2023-01-02T00:27:01.070Z,12.9
2023-01-02T00:28:01.091Z,12.9
2023-01-02T00:29:01.114Z,12.9
2023-01-02T00:30:01.096Z,12.9
2023-01-02T00:31:01.200Z,12.9
2023-01-02T00:32:01.242Z,12.9
2023-01-02T00:33:01.129Z,12.9
2023-01-02T00:34:01.251Z,12.9
2023-01-02T00:35:01.131Z,12.9
2023-01-02T00:36:01.149Z,12.9
2023-01-02T00:37:01.330Z,12.9
2023-01-02T00:38:01.154Z,12.9
2023-01-02T00:39:01.182Z,12.9
2023-01-02T00:40:01.784Z,12.9
2023-01-02T00:41:01.458Z,12.9
2023-01-02T00:42:01.106Z,13
2023-01-02T00:43:01.080Z,12.9
2023-01-02T00:44:01.100Z,13
2023-01-02T00:45:01.092Z,13
2023-01-02T00:46:03.654Z,12.9
2023-01-02T00:47:01.502Z,13
2023-01-02T00:48:01.210Z,13
2023-01-02T00:49:00.903Z,12.9
2023-01-02T00:50:01.145Z,13
2023-01-02T00:51:01.144Z,12.9
2023-01-02T00:52:01.535Z,12.9
2023-01-02T00:53:01.052Z,12.9
2023-01-02T00:54:01.077Z,12.9
2023-01-02T00:55:01.155Z,12.9
2023-01-02T00:56:01.183Z,12.9
2023-01-02T00:57:00.855Z,12.9
2023-01-02T00:58:00.557Z,12.9
2023-01-02T00:59:00.269Z,12.9
2023-01-02T01:00:00.216Z,12.9
2023-01-02T01:01:01.070Z,12.9
2023-01-02T01:02:01.215Z,12.9
2023-01-02T01:03:01.946Z,12.9
2023-01-02T01:04:01.058Z,13
2023-01-02T01:05:01.123Z,12.9
2023-01-02T01:06:04.503Z,12.9
2023-01-02T01:07:01.563Z,13
2023-01-02T01:08:01.162Z,13
2023-01-02T01:09:01.144Z,12.9
2023-01-02T01:10:01.164Z,13
2023-01-02T01:11:06.799Z,13
2023-01-02T01:12:04.876Z,13
2023-01-02T01:13:02.487Z,13
2023-01-02T01:14:01.099Z,12.9
2023-01-02T01:15:01.048Z,12.9
2023-01-02T01:16:10.321Z,12.9
2023-01-02T01:17:01.930Z,12.9
2023-01-02T01:18:01.427Z,12.9
2023-01-02T01:19:01.448Z,12.9
2023-01-02T01:20:01.132Z,12.9
2023-01-02T01:21:13.447Z,12.9
2023-01-02T01:22:01.150Z,12.9
2023-01-02T01:23:01.125Z,12.9
2023-01-02T01:24:01.043Z,12.9
2023-01-02T01:25:01.339Z,12.9
2023-01-02T01:26:16.943Z,12.9
2023-01-02T01:27:01.159Z,12.9
2023-01-02T01:28:01.065Z,13
2023-01-02T01:29:01.111Z,13
2023-01-02T01:30:01.088Z,13
2023-01-02T01:31:01.053Z,13
2023-01-02T01:32:01.144Z,13
2023-01-02T01:33:01.107Z,12.9
2023-01-02T01:34:01.693Z,13
2023-01-02T01:35:01.330Z,13
2023-01-02T01:36:01.356Z,13
2023-01-02T01:37:01.120Z,13
2023-01-02T01:38:01.129Z,13
2023-01-02T01:39:01.946Z,13
2023-01-02T01:40:01.837Z,13
2023-01-02T01:41:01.170Z,13
2023-01-02T01:42:01.150Z,13
2023-01-02T01:43:01.294Z,13
2023-01-02T01:44:01.074Z,13
2023-01-02T01:45:01.451Z,13
2023-01-02T01:46:01.507Z,13
2023-01-02T01:47:01.755Z,13
2023-01-02T01:48:01.121Z,13
2023-01-02T01:49:02.473Z,13
2023-01-02T01:50:05.618Z,13
2023-01-02T01:51:01.138Z,13
2023-01-02T01:52:01.163Z,13
2023-01-02T01:53:01.109Z,13
2023-01-02T01:54:01.125Z,13
2023-01-02T01:55:01.501Z,13.1
2023-01-02T01:56:01.509Z,13.1
2023-01-02T01:57:01.336Z,13
2023-01-02T01:58:01.179Z,13
2023-01-02T01:59:01.171Z,13.1
2023-01-02T02:00:02.555Z,13.1
2023-01-02T02:01:01.097Z,13.1
2023-01-02T02:02:01.266Z,13.1
2023-01-02T02:03:01.205Z,13.1
2023-01-02T02:04:01.959Z,13.1
2023-01-02T02:05:01.503Z,13.1
2023-01-02T02:06:01.195Z,13.1
2023-01-02T02:07:01.129Z,13.1
2023-01-02T02:08:01.073Z,13.1
2023-01-02T02:09:01.132Z,13.1
2023-01-02T02:10:01.124Z,13.1
2023-01-02T02:11:01.153Z,13.1
2023-01-02T02:12:01.151Z,13.1
2023-01-02T02:13:01.277Z,13.1
2023-01-02T02:14:01.482Z,13.2
2023-01-02T02:15:01.197Z,13.2
2023-01-02T02:16:01.007Z,13.2
2023-01-02T02:17:00.759Z,13.1
2023-01-02T02:18:01.924Z,13.2
2023-01-02T02:19:02.625Z,13.2
2023-01-02T02:20:01.238Z,13.1
2023-01-02T02:21:01.290Z,13.2
2023-01-02T02:22:02.372Z,13.2
2023-01-02T02:23:01.122Z,13.2
2023-01-02T02:24:01.118Z,13.2
2023-01-02T02:25:01.118Z,13.2
2023-01-02T02:26:01.152Z,13.2
2023-01-02T02:27:01.158Z,13.2
2023-01-02T02:28:01.267Z,13.2
2023-01-02T02:29:02.739Z,13.2
2023-01-02T02:30:01.191Z,13.2
2023-01-02T02:31:01.268Z,13.2
2023-01-02T02:32:01.146Z,13.2
2023-01-02T02:33:01.089Z,13.2
2023-01-02T02:34:01.053Z,13.2
2023-01-02T02:35:01.385Z,13.3
2023-01-02T02:36:01.108Z,13.2
2023-01-02T02:37:01.481Z,13.3
2023-01-02T02:38:01.195Z,13.3
2023-01-02T02:39:01.421Z,13.3
2023-01-02T02:40:01.112Z,13.2
2023-01-02T02:41:01.130Z,13.2
2023-01-02T02:42:01.130Z,13.2
2023-01-02T02:43:01.139Z,13.2
2023-01-02T02:44:00.911Z,13.3
2023-01-02T02:45:01.523Z,13.3
2023-01-02T02:46:02.175Z,13.3
2023-01-02T02:47:02.939Z,13.3
2023-01-02T02:48:01.082Z,13.3
2023-01-02T02:49:01.041Z,13.3
2023-01-02T02:50:01.171Z,13.3
2023-01-02T02:51:01.099Z,13.3
2023-01-02T02:52:06.648Z,13.3
2023-01-02T02:53:03.785Z,13.3
2023-01-02T02:54:01.101Z,13.3
2023-01-02T02:55:01.131Z,13.3
2023-01-02T02:56:01.107Z,13.3
2023-01-02T02:57:09.860Z,13.3
2023-01-02T02:58:01.315Z,13.3
2023-01-02T02:59:01.956Z,13.3
2023-01-02T03:00:01.427Z,13.3
2023-01-02T03:01:01.631Z,13.3
2023-01-02T03:02:13.205Z,13.3
2023-01-02T03:03:01.209Z,13.3
2023-01-02T03:04:01.967Z,13.4
2023-01-02T03:05:02.599Z,13.4
2023-01-02T03:06:01.091Z,13.4
2023-01-02T03:07:14.450Z,13.4
2023-01-02T03:08:01.090Z,13.4
2023-01-02T03:09:01.118Z,13.4
2023-01-02T03:10:01.131Z,13.4
2023-01-02T03:11:01.653Z,13.4
2023-01-02T03:12:01.257Z,13.4
2023-01-02T03:13:01.145Z,13.4
2023-01-02T03:14:01.128Z,13.4
2023-01-02T03:15:01.138Z,13.4
2023-01-02T03:16:01.152Z,13.4
2023-01-02T03:17:01.224Z,13.4
2023-01-02T03:18:01.153Z,13.4
2023-01-02T03:19:01.076Z,13.4
2023-01-02T03:20:01.455Z,13.4
2023-01-02T03:21:01.086Z,13.5
2023-01-02T03:22:01.084Z,13.5
2023-01-02T03:23:01.092Z,13.5
2023-01-02T03:24:00.900Z,13.4
2023-01-02T03:25:01.099Z,13.5
2023-01-02T03:26:01.038Z,13.5
2023-01-02T03:27:01.126Z,13.5
2023-01-02T03:28:01.139Z,13.5
2023-01-02T03:29:01.498Z,13.5
2023-01-02T03:30:01.064Z,13.4
2023-01-02T03:31:01.080Z,13.5
2023-01-02T03:32:01.064Z,13.5
2023-01-02T03:33:01.151Z,13.5
2023-01-02T03:34:01.195Z,13.4
2023-01-02T03:35:01.792Z,13.5
2023-01-02T03:36:02.508Z,13.5
2023-01-02T03:37:01.087Z,13.4
2023-01-02T03:38:01.512Z,13.4
2023-01-02T03:39:00.784Z,13.4
2023-01-02T03:40:00.370Z,13.4
2023-01-02T03:40:59.955Z,13.4
2023-01-02T03:41:59.554Z,13.4
2023-01-02T03:43:01.119Z,13.4
2023-01-02T03:44:01.115Z,13.4
2023-01-02T03:45:01.155Z,13.4
2023-01-02T03:46:01.214Z,13.4
2023-01-02T03:47:01.503Z,13.5
2023-01-02T03:48:01.157Z,13.5
2023-01-02T03:49:01.157Z,13.5
2023-01-02T03:50:01.170Z,13.5
2023-01-02T03:51:01.075Z,13.5
2023-01-02T03:52:01.076Z,13.5
2023-01-02T03:53:01.235Z,13.5
2023-01-02T03:54:01.449Z,13.5
2023-01-02T03:55:01.870Z,13.5
2023-01-02T03:56:01.125Z,13.5
2023-01-02T03:57:04.057Z,13.5
2023-01-02T03:58:01.515Z,13.5
2023-01-02T03:59:01.123Z,13.5
2023-01-02T04:00:01.887Z,13.5
2023-01-02T04:01:01.183Z,13.5
2023-01-02T04:02:01.531Z,13.5
2023-01-02T04:03:02.405Z,13.5
2023-01-02T04:04:01.858Z,13.5
2023-01-02T04:05:01.065Z,13.5
2023-01-02T04:06:01.146Z,13.5
2023-01-02T04:07:01.069Z,13.5
2023-01-02T04:08:01.577Z,13.5
2023-01-02T04:09:01.051Z,13.5
2023-01-02T04:10:02.060Z,13.5
2023-01-02T04:11:01.106Z,13.5
2023-01-02T04:12:02.031Z,13.5
2023-01-02T04:13:01.783Z,13.5
2023-01-02T04:14:02.555Z,13.5
2023-01-02T04:15:01.710Z,13.5
2023-01-02T04:16:01.195Z,13.5
2023-01-02T04:17:02.574Z,13.5
2023-01-02T04:18:01.496Z,13.5
2023-01-02T04:19:01.160Z,13.5
2023-01-02T04:20:01.581Z,13.5
2023-01-02T04:21:02.128Z,13.5
2023-01-02T04:22:01.973Z,13.5
2023-01-02T04:23:04.298Z,13.5
2023-01-02T04:24:01.068Z,13.5
2023-01-02T04:25:01.263Z,13.5
2023-01-02T04:26:01.435Z,13.5
2023-01-02T04:27:01.442Z,13.5
2023-01-02T04:28:06.970Z,13.5
2023-01-02T04:29:01.966Z,13.5
2023-01-02T04:30:01.971Z,13.5
2023-01-02T04:31:01.212Z,13.5
2023-01-02T04:32:01.143Z,13.5
2023-01-02T04:33:10.220Z,13.5
2023-01-02T04:34:01.643Z,13.5
2023-01-02T04:35:00.974Z,13.5
2023-01-02T04:36:00.699Z,13.5
2023-01-02T04:37:00.454Z,13.5
2023-01-02T04:38:11.863Z,13.5
2023-01-02T04:39:01.473Z,13.5
2023-01-02T04:40:01.269Z,13.5
2023-01-02T04:41:01.998Z,13.5
2023-01-02T04:42:01.100Z,13.5
2023-01-02T04:43:15.099Z,13.5
2023-01-02T04:44:01.128Z,13.5
2023-01-02T04:45:01.489Z,13.5
2023-01-02T04:46:01.258Z,13.5
2023-01-02T04:47:01.066Z,13.5
2023-01-02T04:48:01.053Z,13.5
2023-01-02T04:49:01.133Z,13.5
2023-01-02T04:50:01.809Z,13.5
2023-01-02T04:51:01.137Z,13.5
2023-01-02T04:52:01.157Z,13.5
2023-01-02T04:53:01.861Z,13.5
2023-01-02T04:54:01.653Z,13.5
2023-01-02T04:55:01.374Z,13.5
2023-01-02T04:56:01.083Z,13.5
2023-01-02T04:57:01.179Z,13.5
2023-01-02T04:58:01.184Z,13.5
2023-01-02T04:59:01.605Z,13.5
2023-01-02T05:00:01.141Z,13.5
2023-01-02T05:01:01.911Z,13.5
2023-01-02T05:02:01.253Z,13.5
2023-01-02T05:03:01.144Z,13.5
2023-01-02T05:04:01.647Z,13.5
2023-01-02T05:05:01.500Z,13.5
2023-01-02T05:06:01.519Z,13.5
2023-01-02T05:07:01.281Z,13.5
2023-01-02T05:08:01.295Z,13.5
2023-01-02T05:09:02.220Z,13.5
2023-01-02T05:10:01.156Z,13.5
2023-01-02T05:11:01.787Z,13.5
2023-01-02T05:12:01.738Z,13.5
2023-01-02T05:13:01.779Z,13.5
2023-01-02T05:14:07.162Z,13.5
2023-01-02T05:15:02.686Z,13.5
2023-01-02T05:16:01.863Z,13.5
2023-01-02T05:17:01.107Z,13.5
2023-01-02T05:18:01.071Z,13.5
2023-01-02T05:19:01.112Z,13.5
2023-01-02T05:20:01.556Z,13.5
2023-01-02T05:21:01.241Z,13.5
2023-01-02T05:22:02.821Z,13.5
2023-01-02T05:23:01.153Z,13.5
2023-01-02T05:24:01.166Z,13.5
2023-01-02T05:25:01.081Z,13.5
2023-01-02T05:26:01.095Z,13.5
2023-01-02T05:27:01.761Z,13.5
2023-01-02T05:28:01.371Z,13.5
2023-01-02T05:29:02.760Z,13.5
2023-01-02T05:30:04.256Z,13.5
2023-01-02T05:31:01.917Z,13.5
2023-01-02T05:32:01.106Z,13.5
2023-01-02T05:33:01.104Z,13.5
2023-01-02T05:34:01.109Z,13.4
2023-01-02T05:35:01.800Z,13.4
2023-01-02T05:36:01.111Z,13.4
2023-01-02T05:37:01.146Z,13.4
2023-01-02T05:38:01.156Z,13.4
2023-01-02T05:39:01.536Z,13.4
2023-01-02T05:40:01.155Z,13.4
2023-01-02T05:41:01.232Z,13.4
2023-01-02T05:42:01.171Z,13.4
2023-01-02T05:43:01.997Z,13.4
2023-01-02T05:44:01.365Z,13.4
2023-01-02T05:45:01.083Z,13.4
2023-01-02T05:46:01.112Z,13.3
2023-01-02T05:47:01.103Z,13.3
2023-01-02T05:48:01.092Z,13.3
2023-01-02T05:49:01.093Z,13.3
2023-01-02T05:50:00.807Z,13.3
2023-01-02T05:51:00.493Z,13.3
2023-01-02T05:52:00.194Z,13.3
2023-01-02T05:52:59.885Z,13.3
2023-01-02T05:53:59.581Z,13.3
2023-01-02T05:55:01.452Z,13.3
2023-01-02T05:56:02.169Z,13.3
2023-01-02T05:57:01.493Z,13.3
2023-01-02T05:58:00.568Z,13.3
2023-01-02T05:59:00.177Z,13.3
2023-01-02T05:59:59.826Z,13.3
2023-01-02T06:01:02.020Z,13.2
2023-01-02T06:02:01.175Z,13.3
2023-01-02T06:03:01.953Z,13.3
2023-01-02T06:04:01.044Z,13.3
2023-01-02T06:05:02.466Z,13.2
2023-01-02T06:06:02.135Z,13.2
2023-01-02T06:07:01.094Z,13.3
2023-01-02T06:08:01.124Z,13.3
2023-01-02T06:09:05.931Z,13.3
2023-01-02T06:10:00.824Z,13.3
2023-01-02T06:11:00.521Z,13.3
2023-01-02T06:12:00.240Z,13.3
2023-01-02T06:12:59.947Z,13.2
2023-01-02T06:14:08.204Z,13.3
2023-01-02T06:15:01.161Z,13.3
2023-01-02T06:16:02.048Z,13.2
2023-01-02T06:17:01.492Z,13.2
2023-01-02T06:18:01.091Z,13.3
2023-01-02T06:19:11.703Z,13.3
2023-01-02T06:20:01.342Z,13.2
2023-01-02T06:21:02.144Z,13.2
2023-01-02T06:22:01.108Z,13.2
2023-01-02T06:23:01.325Z,13.2
2023-01-02T06:24:14.788Z,13.2
2023-01-02T06:25:01.060Z,13.2
2023-01-02T06:26:01.142Z,13.2
2023-01-02T06:27:01.515Z,13.2
2023-01-02T06:28:01.943Z,13.2
2023-01-02T06:29:01.145Z,13.2
2023-01-02T06:30:01.159Z,13.2
2023-01-02T06:31:01.066Z,13.1
2023-01-02T06:32:01.187Z,13.1
2023-01-02T06:33:01.177Z,13.1
2023-01-02T06:34:01.103Z,13.1
2023-01-02T06:35:01.051Z,13.1
2023-01-02T06:36:01.131Z,13.1
2023-01-02T06:37:06.169Z,13.1
2023-01-02T06:38:01.116Z,13.1
2023-01-02T06:39:01.140Z,13.1
2023-01-02T06:40:01.115Z,13.1
2023-01-02T06:41:00.814Z,13.1
2023-01-02T06:42:00.429Z,13.1
2023-01-02T06:43:00.523Z,13.1
2023-01-02T06:44:00.223Z,13.1
2023-01-02T06:44:59.815Z,13.1
2023-01-02T06:46:02.264Z,13.1
2023-01-02T06:47:01.076Z,13.1
2023-01-02T06:48:01.081Z,13.1
2023-01-02T06:49:01.066Z,13.1
2023-01-02T06:50:01.056Z,13.1
2023-01-02T06:51:01.099Z,13.1
2023-01-02T06:52:01.299Z,13.1
2023-01-02T06:53:00.793Z,13.1
2023-01-02T06:54:00.500Z,13.1
2023-01-02T06:55:00.192Z,13.1
2023-01-02T06:55:59.886Z,13.1
2023-01-02T06:56:59.560Z,13
2023-01-02T06:58:08.626Z,13.1
2023-01-02T06:59:01.151Z,13.1
2023-01-02T07:00:01.852Z,13.1
2023-01-02T07:01:01.023Z,13.1
2023-01-02T07:02:01.323Z,13
2023-01-02T07:03:02.048Z,13
2023-01-02T07:04:01.064Z,13.1
2023-01-02T07:05:01.278Z,13.1
2023-01-02T07:06:01.386Z,13.1
2023-01-02T07:07:01.344Z,13.1
2023-01-02T07:08:02.016Z,13
2023-01-02T07:09:08.164Z,13
2023-01-02T07:10:01.185Z,13
2023-01-02T07:11:01.116Z,13
2023-01-02T07:12:01.126Z,13
2023-01-02T07:13:01.128Z,13
2023-01-02T07:14:01.146Z,13
2023-01-02T07:15:01.547Z,13
2023-01-02T07:16:01.344Z,13
2023-01-02T07:17:02.355Z,13
2023-01-02T07:18:01.184Z,13
2023-01-02T07:19:01.171Z,13
2023-01-02T07:20:02.177Z,13
2023-01-02T07:21:01.906Z,13
2023-01-02T07:22:01.748Z,13.1
2023-01-02T07:23:01.094Z,13
2023-01-02T07:24:01.091Z,13
2023-01-02T07:25:02.119Z,13
2023-01-02T07:26:01.483Z,13
2023-01-02T07:27:01.083Z,13
2023-01-02T07:28:01.092Z,13.1
2023-01-02T07:29:01.088Z,13
2023-01-02T07:30:01.124Z,13
2023-01-02T07:31:01.153Z,13
2023-01-02T07:32:01.205Z,13
2023-01-02T07:33:01.784Z,13
2023-01-02T07:34:01.370Z,13
2023-01-02T07:35:02.219Z,13
2023-01-02T07:36:01.064Z,13
2023-01-02T07:37:01.069Z,13
2023-01-02T07:38:01.092Z,13
2023-01-02T07:39:01.105Z,13
2023-01-02T07:40:00.841Z,13
2023-01-02T07:41:01.141Z,13
2023-01-02T07:42:01.143Z,13
2023-01-02T07:43:01.525Z,13
2023-01-02T07:44:01.257Z,13
2023-01-02T07:45:01.066Z,13
2023-01-02T07:46:01.176Z,13
2023-01-02T07:47:01.800Z,13
2023-01-02T07:48:01.158Z,13
2023-01-02T07:49:01.150Z,13.1
2023-01-02T07:50:01.082Z,13
2023-01-02T07:51:00.757Z,13.1
2023-01-02T07:52:00.566Z,13.1
2023-01-02T07:53:00.360Z,13.1
2023-01-02T07:54:00.053Z,13.1
2023-01-02T07:55:03.276Z,13.1
2023-01-02T07:56:01.114Z,13.1
2023-01-02T07:57:01.108Z,13.1
2023-01-02T07:58:01.060Z,13.1
2023-01-02T07:59:01.051Z,13.1
2023-01-02T08:00:05.313Z,13.1
2023-01-02T08:01:05.457Z,13.1
2023-01-02T08:02:02.507Z,13.1
2023-01-02T08:03:01.233Z,13.1
2023-01-02T08:04:01.188Z,13.1
2023-01-02T08:05:09.309Z,13.1
2023-01-02T08:06:01.167Z,13.1
2023-01-02T08:07:01.961Z,13.1
2023-01-02T08:08:01.074Z,13.1
2023-01-02T08:09:01.077Z,13.1
2023-01-02T08:10:11.121Z,13.1
2023-01-02T08:11:01.461Z,13.1
2023-01-02T08:12:01.115Z,13.2
2023-01-02T08:13:01.099Z,13.1
2023-01-02T08:14:01.134Z,13.2
2023-01-02T08:15:14.888Z,13.2
2023-01-02T08:16:00.827Z,13.2
2023-01-02T08:17:00.486Z,13.2
2023-01-02T08:18:00.331Z,13.3
2023-01-02T08:19:00.012Z,13.3
2023-01-02T08:20:06.867Z,13.2
2023-01-02T08:21:01.173Z,13.3
2023-01-02T08:22:01.170Z,13.3
2023-01-02T08:23:01.162Z,13.3
2023-01-02T08:24:01.199Z,13.3
2023-01-02T08:25:01.150Z,13.3
2023-01-02T08:26:01.345Z,13.3
2023-01-02T08:27:04.158Z,13.3
2023-01-02T08:28:01.188Z,13.3
2023-01-02T08:29:01.065Z,13.3
2023-01-02T08:30:01.052Z,13.4
2023-01-02T08:31:01.138Z,13.4
2023-01-02T08:32:01.125Z,13.4
2023-01-02T08:33:01.259Z,13.4
2023-01-02T08:34:01.139Z,13.4
2023-01-02T08:35:02.445Z,13.4
2023-01-02T08:36:01.163Z,13.4
2023-01-02T08:37:01.071Z,13.4
2023-01-02T08:38:01.164Z,13.4
2023-01-02T08:39:01.061Z,13.4
2023-01-02T08:40:01.175Z,13.4
2023-01-02T08:41:00.846Z,13.4
2023-01-02T08:42:00.511Z,13.4
2023-01-02T08:43:00.273Z,13.5
2023-01-02T08:43:59.958Z,13.4
2023-01-02T08:44:59.650Z,13.4
2023-01-02T08:46:01.328Z,13.4
2023-01-02T08:47:02.153Z,13.4
2023-01-02T08:48:20.147Z,13.4
2023-01-02T08:49:01.129Z,13.4
2023-01-02T08:50:01.132Z,13.4
2023-01-02T08:51:01.306Z,13.4
2023-01-02T08:52:01.502Z,13.4
2023-01-02T08:53:01.348Z,13.4
2023-01-02T08:54:01.537Z,13.4
2023-01-02T08:55:02.265Z,13.4
2023-01-02T08:56:01.120Z,13.4
2023-01-02T08:57:01.189Z,13.4
2023-01-02T08:58:01.084Z,13.4
2023-01-02T08:59:01.096Z,13.4
2023-01-02T09:00:01.106Z,13.4
2023-01-02T09:01:01.138Z,13.4
2023-01-02T09:02:01.642Z,13.4
2023-01-02T09:03:01.709Z,13.4
2023-01-02T09:04:09.340Z,13.4
2023-01-02T09:05:02.113Z,13.5
2023-01-02T09:06:01.183Z,13.5
2023-01-02T09:07:01.159Z,13.5
2023-01-02T09:08:01.192Z,13.5
2023-01-02T09:09:05.792Z,13.5
2023-01-02T09:10:01.189Z,13.5
2023-01-02T09:11:01.146Z,13.5
2023-01-02T09:12:01.134Z,13.5
2023-01-02T09:13:01.109Z,13.5
2023-01-02T09:14:00.830Z,13.5
2023-01-02T09:15:00.527Z,13.5
2023-01-02T09:16:00.279Z,13.5
2023-01-02T09:17:00.101Z,13.5
2023-01-02T09:17:59.772Z,13.5
2023-01-02T09:19:01.784Z,13.5
2023-01-02T09:20:01.553Z,13.5
2023-01-02T09:21:01.432Z,13.5
2023-01-02T09:22:02.269Z,13.6
2023-01-02T09:23:01.425Z,13.5
2023-01-02T09:24:01.547Z,13.6
2023-01-02T09:25:01.769Z,13.6
2023-01-02T09:26:01.672Z,13.6
2023-01-02T09:27:01.172Z,13.6
2023-01-02T09:28:01.126Z,13.6
2023-01-02T09:29:01.111Z,13.6
2023-01-02T09:30:01.097Z,13.6
2023-01-02T09:31:01.565Z,13.6
2023-01-02T09:32:01.217Z,13.6
2023-01-02T09:33:01.274Z,13.6
2023-01-02T09:34:01.133Z,13.7
2023-01-02T09:35:01.220Z,13.7
2023-01-02T09:36:01.147Z,13.6
2023-01-02T09:37:01.205Z,13.7
2023-01-02T09:38:01.188Z,13.6
2023-01-02T09:39:01.213Z,13.6
2023-01-02T09:40:01.078Z,13.6
2023-01-02T09:41:01.611Z,13.7
2023-01-02T09:42:00.877Z,13.6
2023-01-02T09:43:01.076Z,13.6
2023-01-02T09:44:01.069Z,13.6
2023-01-02T09:45:06.479Z,13.6
2023-01-02T09:46:03.502Z,13.7
2023-01-02T09:47:01.081Z,13.6
2023-01-02T09:48:01.106Z,13.7
2023-01-02T09:49:01.109Z,13.7
2023-01-02T09:50:01.142Z,13.7
2023-01-02T09:51:07.988Z,13.7
2023-01-02T09:52:02.518Z,13.7
2023-01-02T09:53:01.149Z,13.7
2023-01-02T09:54:01.145Z,13.6
2023-01-02T09:55:01.148Z,13.7
2023-01-02T09:56:09.100Z,13.7
2023-01-02T09:57:01.493Z,13.7
2023-01-02T09:58:02.604Z,13.7
2023-01-02T09:59:01.207Z,13.7
2023-01-02T10:00:00.876Z,13.7
2023-01-02T10:01:11.315Z,13.7
2023-01-02T10:02:01.262Z,13.7
2023-01-02T10:03:07.587Z,13.7
2023-01-02T10:04:02.106Z,13.7
2023-01-02T10:05:01.221Z,13.7
2023-01-02T10:06:13.907Z,13.7
2023-01-02T10:07:01.105Z,13.7
2023-01-02T10:08:01.116Z,13.7
2023-01-02T10:09:01.131Z,13.7
2023-01-02T10:10:01.130Z,13.7
2023-01-02T10:11:16.384Z,13.7
2023-01-02T10:12:01.145Z,13.7
2023-01-02T10:13:01.148Z,13.8
2023-01-02T10:15:01.058Z,13.7
2023-01-02T10:16:01.227Z,13.8
2023-01-02T10:17:01.074Z,13.8
2023-01-02T10:18:01.461Z,13.8
2023-01-02T10:19:01.085Z,13.8
2023-01-02T10:20:01.317Z,13.8
2023-01-02T10:21:01.205Z,13.8
2023-01-02T10:22:01.262Z,13.8
2023-01-02T10:23:01.172Z,13.8
2023-01-02T10:24:01.259Z,13.8
2023-01-02T10:25:01.259Z,13.8
2023-01-02T10:26:01.464Z,13.8
2023-01-02T10:27:01.196Z,13.8
2023-01-02T10:28:01.595Z,13.8
2023-01-02T10:29:01.167Z,13.8
2023-01-02T10:30:01.057Z,13.8
2023-01-02T10:31:05.548Z,13.8
2023-01-02T10:32:01.948Z,13.8
2023-01-02T10:33:01.956Z,13.9
2023-01-02T10:34:01.199Z,13.9
2023-01-02T10:35:01.132Z,13.9
2023-01-02T10:36:01.791Z,13.9
2023-01-02T10:37:07.687Z,13.9
2023-01-02T10:38:02.287Z,13.9
2023-01-02T10:39:01.115Z,13.9
2023-01-02T10:40:01.576Z,13.9
2023-01-02T10:41:01.157Z,13.9
2023-01-02T10:42:01.259Z,13.9
2023-01-02T10:43:01.147Z,13.9
2023-01-02T10:44:01.124Z,14
2023-01-02T10:45:01.242Z,14
2023-01-02T10:46:01.161Z,14
2023-01-02T10:47:01.446Z,14
2023-01-02T10:48:01.193Z,14
2023-01-02T10:49:01.076Z,14
2023-01-02T10:50:01.113Z,14
2023-01-02T10:51:01.062Z,14
2023-01-02T10:52:01.247Z,14
2023-01-02T10:53:01.110Z,14
2023-01-02T10:54:01.268Z,14
2023-01-02T10:55:01.298Z,14
2023-01-02T10:56:01.498Z,14
2023-01-02T10:57:01.133Z,14
2023-01-02T10:58:01.122Z,14
2023-01-02T10:59:01.341Z,14
2023-01-02T11:00:01.665Z,14
2023-01-02T11:01:02.666Z,14
2023-01-02T11:02:01.600Z,14
2023-01-02T11:03:01.181Z,14
2023-01-02T11:04:01.358Z,14
2023-01-02T11:05:01.426Z,14
2023-01-02T11:06:26.835Z,14.1
2023-01-02T11:07:01.340Z,14
2023-01-02T11:08:01.044Z,14
2023-01-02T11:09:01.120Z,14.1
2023-01-02T11:10:01.110Z,14.1
2023-01-02T11:11:01.821Z,14.1
2023-01-02T11:12:01.242Z,14.1
2023-01-02T11:13:02.556Z,14.1
2023-01-02T11:14:03.889Z,14.1
2023-01-02T11:15:01.138Z,14.1
2023-01-02T11:16:01.256Z,14.1
2023-01-02T11:17:01.157Z,14.1
2023-01-02T11:18:01.167Z,14.1
2023-01-02T11:19:01.097Z,14.1
2023-01-02T11:20:00.795Z,14.1
2023-01-02T11:21:01.164Z,14.1
2023-01-02T11:22:01.116Z,14.1
2023-01-02T11:23:01.113Z,14.1
2023-01-02T11:24:01.113Z,14.1
2023-01-02T11:25:01.553Z,14.1
2023-01-02T11:26:02.569Z,14.1
2023-01-02T11:27:01.794Z,14.1
2023-01-02T11:28:01.172Z,14.1
2023-01-02T11:29:01.124Z,14.1
2023-01-02T11:30:01.597Z,14.1
2023-01-02T11:31:00.936Z,14.1
2023-01-02T11:32:02.047Z,14.1
2023-01-02T11:33:01.171Z,14.1
2023-01-02T11:34:01.364Z,14.1
2023-01-02T11:35:01.049Z,14.1
2023-01-02T11:36:01.102Z,14.1
2023-01-02T11:37:04.728Z,14.1
2023-01-02T11:38:01.988Z,14.1
2023-01-02T11:39:01.372Z,14.1
2023-01-02T11:40:00.778Z,14.1
2023-01-02T11:41:01.499Z,14.1
2023-01-02T11:42:08.098Z,14.1
2023-01-02T11:43:01.805Z,14.1
2023-01-02T11:44:00.886Z,14.1
2023-01-02T11:45:01.073Z,14.1
2023-01-02T11:46:01.147Z,14.1
2023-01-02T11:47:11.954Z,14.2
2023-01-02T11:48:01.139Z,14.2
2023-01-02T11:49:01.269Z,14.2
2023-01-02T11:50:01.319Z,14.2
2023-01-02T11:51:01.876Z,14.3
2023-01-02T11:52:13.778Z,14.3
2023-01-02T11:53:01.090Z,14.3
2023-01-02T11:54:01.077Z,14.3
2023-01-02T11:55:01.389Z,14.3
2023-01-02T11:56:01.389Z,14.4
2023-01-02T11:57:18.916Z,14.4
2023-01-02T11:58:01.112Z,14.4
2023-01-02T11:59:01.226Z,14.4
2023-01-02T12:00:00.823Z,14.4
2023-01-02T12:01:01.122Z,14.4
2023-01-02T12:02:01.301Z,14.5
2023-01-02T12:03:01.497Z,14.5
2023-01-02T12:04:02.513Z,14.4
2023-01-02T12:05:02.198Z,14.5
2023-01-02T12:06:01.313Z,14.5
2023-01-02T12:07:01.289Z,14.5
2023-01-02T12:08:02.241Z,14.5
2023-01-02T12:09:01.135Z,14.5
2023-01-02T12:10:01.258Z,14.5
2023-01-02T12:11:01.136Z,14.5
2023-01-02T12:12:01.099Z,14.5
2023-01-02T12:13:01.105Z,14.5
2023-01-02T12:14:01.222Z,14.5
2023-01-02T12:15:01.111Z,14.5
2023-01-02T12:16:01.111Z,14.5
2023-01-02T12:17:01.190Z,14.5
2023-01-02T12:18:01.514Z,14.5
2023-01-02T12:19:02.822Z,14.5
2023-01-02T12:20:05.474Z,14.5
2023-01-02T12:21:01.448Z,14.5
2023-01-02T12:22:01.149Z,14.5
2023-01-02T12:23:01.069Z,14.5
2023-01-02T12:24:00.762Z,14.5
2023-01-02T12:25:00.812Z,14.5
2023-01-02T12:26:07.193Z,14.5
2023-01-02T12:27:01.475Z,14.5
2023-01-02T12:28:01.103Z,14.5
2023-01-02T12:29:01.143Z,14.5
2023-01-02T12:30:01.108Z,14.5
2023-01-02T12:31:01.152Z,14.5
2023-01-02T12:32:06.168Z,14.5
2023-01-02T12:33:01.703Z,14.5
2023-01-02T12:34:01.289Z,14.5
2023-01-02T12:35:02.349Z,14.5
2023-01-02T12:36:02.202Z,14.5
2023-01-02T12:37:01.047Z,14.5
2023-01-02T12:38:01.151Z,14.5
2023-01-02T12:39:01.086Z,14.5
2023-01-02T12:40:00.766Z,14.5
2023-01-02T12:41:00.462Z,14.4
2023-01-02T12:42:01.360Z,14.5
2023-01-02T12:43:01.087Z,14.5
2023-01-02T12:44:01.078Z,14.4
2023-01-02T12:45:01.180Z,14.4
2023-01-02T12:46:01.952Z,14.4
2023-01-02T12:47:02.074Z,14.4
2023-01-02T12:48:01.050Z,14.4
2023-01-02T12:49:01.060Z,14.4
2023-01-02T12:50:01.107Z,14.4
2023-01-02T12:51:01.056Z,14.4
2023-01-02T12:52:01.044Z,14.4
2023-01-02T12:53:01.091Z,14.3
2023-01-02T12:54:19.809Z,14.3
2023-01-02T12:55:01.048Z,14.4
2023-01-02T12:56:01.086Z,14.4
2023-01-02T12:57:01.893Z,14.3
2023-01-02T12:58:01.194Z,14.3
2023-01-02T12:59:01.134Z,14.3
2023-01-02T13:00:00.896Z,14.3
2023-01-02T13:01:01.451Z,14.3
2023-01-02T13:02:02.295Z,14.3
2023-01-02T13:03:01.164Z,14.3
2023-01-02T13:04:01.161Z,14.3
2023-01-02T13:05:01.823Z,14.3
2023-01-02T13:06:02.565Z,14.3
2023-01-02T13:07:01.785Z,14.3
2023-01-02T13:08:01.424Z,14.3
2023-01-02T13:09:01.328Z,14.3
2023-01-02T13:10:01.154Z,14.3
2023-01-02T13:11:01.058Z,14.3
2023-01-02T13:12:01.070Z,14.3
2023-01-02T13:13:01.073Z,14.3
2023-01-02T13:14:01.209Z,14.2
2023-01-02T13:15:01.088Z,14.2
2023-01-02T13:16:03.735Z,14.2
2023-01-02T13:17:01.148Z,14.2
2023-01-02T13:18:03.504Z,14.2
2023-01-02T13:19:01.433Z,14.2
2023-01-02T13:20:01.164Z,14.1
2023-01-02T13:21:01.529Z,14.1
2023-01-02T13:22:01.518Z,14.1
2023-01-02T13:23:07.661Z,14.1
2023-01-02T13:24:01.141Z,14.1
2023-01-02T13:25:01.171Z,14.1
2023-01-02T13:26:01.149Z,14.1
2023-01-02T13:27:01.200Z,14.1